Flight Track Log - Related Links

Times and Time Zones

All times are in EDT time to prevent confusion due to time zone crossing. See the DCM6741 flight status page for this flight to view local times or setup timezone preferences in your user account.

Time Position Orientation Groundspeed Altitude Reporting Facility
EDT Latitude Longitude Course Direction KTS MPH feet Rate Location/Type
Mon 05:47:32 PM 28.1000 -80.6333 90° East 149 171 600  Level Orlando TRACON
Mon 05:48:09 PM 28.1000 -80.6000 86° East 208 239 1,900 2,649 Climbing Orlando TRACON
Mon 05:48:49 PM 28.1031 -80.5475 86° East 267 307 4,000 1,800 Climbing Miami Center
Mon 05:49:49 PM 28.1069 -80.4769 106° East 275 316 4,900 750 Climbing Miami Center
Mon 05:50:49 PM 28.0878 -80.4011 114° Southeast 257 296 5,500 1,800 Climbing Miami Center
Mon 05:51:49 PM 28.0583 -80.3272 46° Northeast 252 290 8,500 2,850 Climbing Miami Center
Mon 05:52:49 PM 28.1014 -80.2767 16° North 211 243 11,200 2,600 Climbing Miami Center
Mon 05:53:49 PM 28.1728 -80.2531 19° North 191 220 13,700 2,500 Climbing Miami Center
Mon 05:54:49 PM 28.2467 -80.2244 17° North 234 269 16,200 2,400 Climbing Miami Center
Mon 05:55:49 PM 28.3267 -80.1964 22° Northeast 264 304 18,500 258 Climbing Miami Center
Mon 06:03:15 PM 28.9233 -80.1336 23° Northeast  Level FlightAware Approximate
Mon 06:04:15 PM 28.9572 -80.0159 22° Northeast  Level FlightAware Approximate
Mon 06:05:15 PM 29.0499 -79.9506 22° Northeast  Level FlightAware Approximate
Mon 06:06:15 PM 29.1425 -79.8852 22° Northeast  Level FlightAware Approximate
Mon 06:07:15 PM 29.2372 -79.8238 22° Northeast  Level FlightAware Approximate
Mon 06:08:15 PM 29.3336 -79.7660 22° Northeast  Level FlightAware Approximate
Mon 06:09:15 PM 29.4300 -79.7080 22° Northeast  Level FlightAware Approximate
Mon 06:10:15 PM 29.5279 -79.6532 22° Northeast  Level FlightAware Approximate
Mon 06:11:15 PM 29.6257 -79.5983 22° Northeast  Level FlightAware Approximate
Mon 06:12:15 PM 29.7266 -79.5514 22° Northeast  Level FlightAware Approximate
Mon 06:13:15 PM 29.8275 -79.5044 22° Northeast  Level FlightAware Approximate
Mon 06:14:15 PM 29.9283 -79.4573 22° Northeast  Level FlightAware Approximate
Mon 06:15:15 PM 30.0292 -79.4101 22° Northeast  Level FlightAware Approximate
Mon 06:16:15 PM 30.1300 -79.3628 22° Northeast  Level FlightAware Approximate
Mon 06:17:15 PM 30.2326 -79.3207 22° Northeast  Level FlightAware Approximate
Mon 06:18:15 PM 30.3352 -79.2786 22° Northeast  Level FlightAware Approximate
Mon 06:19:15 PM 30.4377 -79.2363 22° Northeast  Level FlightAware Approximate
Mon 06:20:15 PM 30.5403 -79.1940 22° Northeast  Level FlightAware Approximate
Mon 06:21:15 PM 30.6428 -79.1516 22° Northeast  Level FlightAware Approximate
Mon 06:22:15 PM 30.7453 -79.1091 23° Northeast  Level FlightAware Approximate
Mon 06:23:15 PM 30.8475 -79.0654 23° Northeast  Level FlightAware Approximate
Mon 06:24:15 PM 30.9496 -79.0217 23° Northeast  Level FlightAware Approximate
Mon 06:25:15 PM 31.0517 -78.9778 23° Northeast  Level FlightAware Approximate
Mon 06:26:15 PM 31.1538 -78.9338 23° Northeast  Level FlightAware Approximate
Mon 06:27:15 PM 31.2559 -78.8898 23° Northeast  Level FlightAware Approximate
Mon 06:28:15 PM 31.3580 -78.8456 23° Northeast  Level FlightAware Approximate
Mon 06:29:15 PM 31.4601 -78.8014 23° Northeast  Level FlightAware Approximate
Mon 06:30:15 PM 31.5621 -78.7571 23° Northeast  Level FlightAware Approximate
Mon 06:31:15 PM 31.6642 -78.7126 23° Northeast  Level FlightAware Approximate
Mon 06:32:15 PM 31.7662 -78.6681 23° Northeast  Level FlightAware Approximate
Mon 06:33:15 PM 31.8681 -78.6230 24° Northeast  Level FlightAware Approximate
Mon 06:34:15 PM 31.9699 -78.5779 24° Northeast  Level FlightAware Approximate
Mon 06:35:15 PM 32.0718 -78.5326 24° Northeast  Level FlightAware Approximate
Mon 06:36:15 PM 32.1736 -78.4872 24° Northeast  Level FlightAware Approximate
Mon 06:37:15 PM 32.2754 -78.4417 24° Northeast  Level FlightAware Approximate
Mon 06:38:15 PM 32.3772 -78.3961 24° Northeast  Level FlightAware Approximate
Mon 06:39:15 PM 32.4790 -78.3505 24° Northeast  Level FlightAware Approximate
Mon 06:40:15 PM 32.5805 -78.3040 24° Northeast  Level FlightAware Approximate
Mon 06:41:15 PM 32.6820 -78.2574 25° Northeast  Level FlightAware Approximate
Mon 06:42:15 PM 32.7835 -78.2107 25° Northeast  Level FlightAware Approximate
Mon 06:43:15 PM 32.8850 -78.1640 25° Northeast  Level FlightAware Approximate
Mon 06:44:15 PM 32.9865 -78.1171 25° Northeast  Level FlightAware Approximate
Mon 06:45:15 PM 33.0879 -78.0701 25° Northeast  Level FlightAware Approximate
Mon 06:46:15 PM 33.1893 -78.0230 26° Northeast  Level FlightAware Approximate
Mon 06:47:15 PM 33.2907 -77.9758 26° Northeast  Level FlightAware Approximate
Mon 06:48:15 PM 33.3921 -77.9284 26° Northeast  Level FlightAware Approximate
Mon 06:49:15 PM 33.4935 -77.8810 26° Northeast  Level FlightAware Approximate
Mon 06:50:15 PM 33.5949 -77.8335 27° Northeast  Level FlightAware Approximate
Mon 06:51:15 PM 33.6960 -77.7851 27° Northeast  Level FlightAware Approximate
Mon 06:52:15 PM 33.7971 -77.7366 27° Northeast  Level FlightAware Approximate
Mon 06:53:15 PM 33.8981 -77.6880 28° Northeast  Level FlightAware Approximate
Mon 06:54:15 PM 33.9992 -77.6393 28° Northeast  Level FlightAware Approximate
Mon 06:55:15 PM 34.1002 -77.5904 29° Northeast  Level FlightAware Approximate
Mon 06:56:15 PM 34.2012 -77.5415 29° Northeast  Level FlightAware Approximate
Mon 06:57:15 PM 34.3022 -77.4924 30° Northeast  Level FlightAware Approximate
Mon 06:58:15 PM 34.4032 -77.4432 31° Northeast  Level FlightAware Approximate
Mon 06:59:15 PM 34.5041 -77.3939 32° Northeast  Level FlightAware Approximate
Mon 06:59:54 PM 35.2631 -76.8056 21° North 456 525 33,000  Level Washington Center
Mon 07:07:54 PM 36.1931 -76.3719 21° North 451 519 33,000  Level Washington Center
Mon 07:10:53 PM 36.5447 -76.2047 20° North 451 519 33,000 -200 Level Washington Center
Mon 07:11:54 PM 36.6597 -76.1539 23° Northeast 446 513 32,200 -885 Descending Washington Center
Mon 07:12:55 PM 36.7808 -76.0897 22° Northeast 453 521 31,200 -992 Descending Washington Center
Mon 07:13:55 PM 36.9000 -76.0308 20° North 453 521 30,200 -1,068 Descending Washington Center
Mon 07:14:53 PM 37.0381 -75.9692 21° North 468 539 29,100 -605 Descending Washington Center
Mon 07:15:54 PM 37.1569 -75.9125 22° Northeast 468 539 29,000 -50 Descending Washington Center
Mon 07:16:53 PM 37.2761 -75.8528 21° North 462 532 29,000  Level Washington Center
Mon 07:17:53 PM 37.3908 -75.7983 21° North 449 517 29,000 -298 Level Washington Center
Mon 07:18:54 PM 37.5078 -75.7411 22° Northeast 449 517 28,400 -787 Descending Washington Center
Mon 07:19:55 PM 37.6267 -75.6808 20° North 449 517 27,400 -992 Descending Washington Center
Mon 07:20:55 PM 37.7497 -75.6233 23° Northeast 455 524 26,400 -1,017 Descending Washington Center
Mon 07:21:53 PM 37.8686 -75.5603 21° North 455 524 25,400 -1,008 Descending Washington Center
Mon 07:22:54 PM 37.9894 -75.5022 22° Northeast 455 524 24,400 -984 Descending Washington Center
Mon 07:23:55 PM 38.1042 -75.4439 26° Northeast 450 518 23,400 -1,008 Descending Washington Center
Mon 07:24:53 PM 38.2167 -75.3725 28° Northeast 450 518 22,400 -1,059 Descending Washington Center
Mon 07:25:54 PM 38.3208 -75.3006 26° Northeast 437 503 21,300 -1,131 Descending Washington Center
Mon 07:26:55 PM 38.4269 -75.2339 26° Northeast 424 488 20,100 -2,083 Descending Washington Center
Mon 07:27:55 PM 38.5269 -75.1725 28° Northeast 418 481 17,100 -3,203 Descending Washington Center
Mon 07:28:53 PM 38.6244 -75.1053 25° Northeast 398 458 13,800 -2,085 Descending Washington Center
Mon 07:29:53 PM 38.7181 -75.0489 27° Northeast 383 441 13,000 -397 Descending Washington Center
Mon 07:30:54 PM 38.8136 -74.9869 27° Northeast 378 435 13,000 -50 Level Washington Center
Mon 07:31:54 PM 38.9072 -74.9247 28° Northeast 378 435 12,900 -545 Descending Washington Center
Mon 07:32:55 PM 38.9903 -74.8678 26° Northeast 362 417 11,900 -942 Descending Washington Center
Mon 07:33:55 PM 39.0711 -74.8164 37° Northeast 337 388 11,000 -967 Descending Washington Center
Mon 07:35:55 PM 39.2078 -74.6836 41° Northeast 313 360 9,000 -1,000 Descending Washington Center
Mon 07:36:55 PM 39.2697 -74.6131 39° Northeast 297 342 8,000 -1,000 Descending Washington Center
Mon 07:37:55 PM 39.3339 -74.5450 32° Northeast 297 342 7,000 -1,017 Descending Washington Center
Mon 07:38:53 PM 39.4022 -74.4903 20° North 291 335 6,000 -1,017 Descending Washington Center
Mon 07:39:53 PM 39.4747 -74.4569 23° Northeast 278 320 5,000 -1,000 Descending Washington Center
Mon 07:47:15 PM 40.1397 -74.0839 327° Northwest  Level FlightAware Approximate
Mon 07:48:15 PM 40.2335 -74.1650 147° Southeast  Level Estimated
Mon 07:49:15 PM 40.1397 -74.0839 330° Northwest  Level Estimated
Mon 07:50:15 PM 40.1833 -74.1167 300° West  Level FlightAware Approximate
Mon 07:51:15 PM 40.2387 -74.2447 119° Southeast  Level Estimated
Mon 07:52:15 PM 40.1833 -74.1167 300° West  Level FlightAware Approximate
Mon 07:53:15 PM 40.2387 -74.2447 119° Southeast  Level Estimated
Mon 07:54:15 PM 40.1833 -74.1167 300° West  Level FlightAware Approximate
Mon 07:55:15 PM 40.2387 -74.2447 119° Southeast  Level Estimated
Mon 07:56:15 PM 40.1833 -74.1167 300° West  Level FlightAware Approximate
Mon 07:57:15 PM 40.2387 -74.2447 119° Southeast  Level Estimated
Mon 07:58:15 PM 40.1833 -74.1167 119° Southeast  Level FlightAware Approximate

Login

Don't have an account? Register now (free) for customized features, flight alerts, and more!